This is the latest recevied weather packets stored in our database for station/object DL8BZ-10. If no packets are shown the sender has not sent any weather packets the latest 10 day(s).
| Time | Temp. | Humidity | Pressure | Rain* | Wind** | Luminosity | Snow |
|---|---|---|---|---|---|---|---|
| 1777565144 | 25° C | 20% | 1027.3 hPa | - | - | - | - |
| 1777561823 | 26.11° C | 19% | 1027.6 hPa | - | - | - | - |
| 1777558503 | 26.11° C | 19% | 1028 hPa | - | - | - | - |
| 1777555202 | 26.11° C | 19% | 1028.5 hPa | - | - | - | - |
| 1777548579 | 24.44° C | 19% | 1029.8 hPa | - | - | - | - |
| 1777545277 | 27.78° C | 16% | 1030 hPa | - | - | - | - |
| 1777541976 | 23.89° C | 20% | 1030.5 hPa | - | - | - | - |
| 1777538676 | 22.22° C | 22% | 1030.9 hPa | - | - | - | - |
| 1777535375 | 20° C | 23% | 1030.9 hPa | - | - | - | - |
| 1777532074 | 17.78° C | 28% | 1031.2 hPa | - | - | - | - |
| 1777528774 | 17.22° C | 29% | 1031.1 hPa | - | - | - | - |
| 1777525473 | 16.67° C | 30% | 1030.7 hPa | - | - | - | - |
| 1777522172 | 16.67° C | 31% | 1030.2 hPa | - | - | - | - |
| 1777518871 | 16.67° C | 31% | 1030.1 hPa | - | - | - | - |
| 1777512270 | 17.22° C | 30% | 1029.6 hPa | - | - | - | - |
| 1777508970 | 17.78° C | 30% | 1029.5 hPa | - | - | - | - |
| 1777505669 | 17.78° C | 29% | 1029.5 hPa | - | - | - | - |
| 1777502368 | 17.78° C | 29% | 1029.3 hPa | - | - | - | - |
| 1777499068 | 18.33° C | 29% | 1028.9 hPa | - | - | - | - |
| 1777495768 | 18.89° C | 29% | 1028.7 hPa | - | - | - | - |
| 1777492467 | 19.44° C | 29% | 1028.3 hPa | - | - | - | - |
| 1777485860 | 21.11° C | 26% | 1027.3 hPa | - | - | - | - |
| 1777482557 | 22.22° C | 23% | 1027 hPa | - | - | - | - |
| 1777479257 | 23.89° C | 22% | 1026.8 hPa | - | - | - | - |
| 1777475953 | 25° C | 20% | 1026.9 hPa | - | - | - | - |
* Rain since midnight (hover to see other rain measurements)
** Current wind speed in m/s (hover to see current wind gust speed)